Time;durP1;ratioP1;P1;durP2;ratioP2;P2;SDS_P1;SDS_P2;PMS_P1;PMS_P2;Temp;Humidity;BMP_temperature;BMP_pressure;BME280_temperature;BME280_humidity;BME280_pressure;Samples;Min_cycle;Max_cycle;Signal;HPM_P1;HPM_P2
2022/06/28 00:01:51;;;;;;;1.20;0.90;;;21.70;99.90;;;;;;5052781;28;20624;-72
2022/06/28 00:04:20;;;;;;;1.65;1.25;;;21.60;99.90;;;;;;5052685;28;20238;-73
2022/06/28 00:06:47;;;;;;;0.85;0.85;;;21.60;99.90;;;;;;5055260;28;20868;-74
2022/06/28 00:09:14;;;;;;;1.30;1.13;;;21.50;99.90;;;;;;5071284;28;20205;-74
2022/06/28 00:11:41;;;;;;;1.15;1.05;;;21.50;99.90;;;;;;5071100;28;20212;-72
2022/06/28 00:16:04;;;;;;;0.90;0.90;;;21.40;99.90;;;;;;5070628;28;20287;-72
2022/06/28 00:16:53;;;;;;;2.05;1.20;;;21.40;99.90;;;;;;5065051;28;20260;-72
2022/06/28 00:19:19;;;;;;;1.90;0.98;;;21.30;99.90;;;;;;5051666;28;20224;-70
2022/06/28 00:21:46;;;;;;;1.45;1.05;;;21.30;99.90;;;;;;5051836;28;20200;-72
2022/06/28 00:24:11;;;;;;;3.20;1.70;;;21.20;99.90;;;;;;5051884;28;20679;-73
2022/06/28 00:26:37;;;;;;;0.85;0.85;;;21.20;99.90;;;;;;5051857;28;20202;-73
2022/06/28 00:29:03;;;;;;;0.98;0.82;;;21.00;99.90;;;;;;5033799;28;20624;-72
2022/06/28 00:31:28;;;;;;;0.60;0.60;;;20.70;99.90;;;;;;5051872;28;20262;-72
2022/06/28 00:33:54;;;;;;;2.15;1.38;;;20.60;99.90;;;;;;5051756;28;20644;-71
2022/06/28 00:36:20;;;;;;;1.70;1.05;;;20.60;99.90;;;;;;5051509;28;20192;-72
2022/06/28 00:38:46;;;;;;;0.63;0.63;;;20.60;99.90;;;;;;5033659;28;20193;-71
2022/06/28 00:41:12;;;;;;;1.52;1.15;;;20.70;99.90;;;;;;5051760;28;20229;-70
2022/06/28 00:43:37;;;;;;;2.80;1.88;;;20.70;99.90;;;;;;5043392;28;20224;-72
2022/06/28 00:46:03;;;;;;;0.68;0.68;;;20.70;99.90;;;;;;5031452;28;20202;-71
2022/06/28 00:48:30;;;;;;;3.70;2.10;;;20.60;99.90;;;;;;5031257;28;20277;-71
2022/06/28 00:50:56;;;;;;;0.70;0.70;;;20.60;99.90;;;;;;5031778;28;20210;-71
2022/06/28 00:53:21;;;;;;;2.50;0.88;;;20.50;99.90;;;;;;5013846;28;20198;-71
2022/06/28 00:55:47;;;;;;;1.27;0.98;;;20.50;99.90;;;;;;5031397;28;20201;-72
2022/06/28 00:58:14;;;;;;;1.35;1.15;;;20.40;99.90;;;;;;5031417;28;20198;-71
2022/06/28 01:00:43;;;;;;;1.10;0.95;;;20.40;99.90;;;;;;5031174;28;20653;-71
2022/06/28 01:03:11;;;;;;;1.27;1.02;;;20.40;99.90;;;;;;5031078;28;20194;-70
2022/06/28 01:05:37;;;;;;;3.03;1.10;;;20.30;99.90;;;;;;5034909;28;20276;-71
2022/06/28 01:08:04;;;;;;;1.70;1.48;;;20.30;99.90;;;;;;5033247;28;20301;-70
2022/06/28 01:10:30;;;;;;;2.08;1.20;;;20.30;99.90;;;;;;5033016;28;20251;-70
2022/06/28 01:12:56;;;;;;;1.73;1.15;;;20.20;99.90;;;;;;5033199;28;20692;-70
2022/06/28 01:15:21;;;;;;;0.63;0.63;;;20.20;99.90;;;;;;5050999;28;20645;-71
2022/06/28 01:17:47;;;;;;;2.00;1.58;;;20.10;99.90;;;;;;5050936;28;20240;-71
2022/06/28 01:20:13;;;;;;;0.93;0.75;;;20.00;99.90;;;;;;5051155;28;20295;-71
2022/06/28 01:22:41;;;;;;;2.25;1.35;;;19.90;99.90;;;;;;5033010;28;20202;-71
2022/06/28 01:25:08;;;;;;;1.25;1.13;;;19.80;99.90;;;;;;5050995;28;20276;-70
2022/06/28 01:27:35;;;;;;;0.75;0.75;;;19.70;99.90;;;;;;5032957;28;20616;-69
2022/06/28 01:30:03;;;;;;;0.55;0.55;;;19.80;99.90;;;;;;5050991;28;20212;-70
2022/06/28 01:32:29;;;;;;;0.93;0.90;;;19.70;99.90;;;;;;5050794;28;20732;-69
2022/06/28 01:34:54;;;;;;;1.40;1.08;;;19.60;99.90;;;;;;5051058;28;20280;-70
2022/06/28 01:37:20;;;;;;;1.08;0.90;;;19.50;99.90;;;;;;5050617;28;20192;-70
2022/06/28 01:39:46;;;;;;;1.75;1.27;;;19.40;99.90;;;;;;5043811;28;20206;-70
2022/06/28 01:42:12;;;;;;;0.77;0.77;;;19.40;99.90;;;;;;5030977;28;20476;-70
2022/06/28 01:44:39;;;;;;;1.17;0.98;;;19.30;99.90;;;;;;5030806;28;20194;-70
2022/06/28 01:47:07;;;;;;;1.92;1.08;;;19.20;99.90;;;;;;5030860;28;20624;-70
2022/06/28 01:49:32;;;;;;;1.58;0.82;;;19.30;99.90;;;;;;5030560;28;20204;-70
2022/06/28 01:51:58;;;;;;;1.63;0.93;;;19.30;99.90;;;;;;5030930;28;20559;-71
2022/06/28 01:54:25;;;;;;;1.52;1.40;;;19.30;99.90;;;;;;5012972;28;20272;-70
2022/06/28 01:56:51;;;;;;;0.77;0.75;;;19.30;99.90;;;;;;5013080;28;20633;-70
2022/06/28 01:59:17;;;;;;;1.25;1.15;;;19.30;99.90;;;;;;5034418;28;20190;-69
2022/06/28 02:01:43;;;;;;;1.60;1.25;;;19.30;99.90;;;;;;5045422;28;20267;-72
2022/06/28 02:04:23;;;;;;;1.42;1.30;;;19.40;99.90;;;;;;5050666;28;20540;-71
2022/06/28 02:06:49;;;;;;;0.82;0.82;;;19.60;99.90;;;;;;5050503;28;20205;-70
2022/06/28 02:09:15;;;;;;;0.90;0.90;;;19.60;99.90;;;;;;5050675;28;20260;-71
2022/06/28 02:11:42;;;;;;;1.05;0.90;;;19.70;99.90;;;;;;5032595;28;20205;-70
2022/06/28 02:14:08;;;;;;;2.70;1.77;;;19.70;99.90;;;;;;5032766;28;20255;-71
2022/06/28 02:16:34;;;;;;;1.85;1.02;;;19.70;99.90;;;;;;5050129;28;20236;-71
2022/06/28 02:18:59;;;;;;;0.90;0.90;;;19.70;99.90;;;;;;5052832;28;20209;-70
2022/06/28 02:21:26;;;;;;;0.82;0.82;;;19.80;99.90;;;;;;5054023;28;20255;-70
2022/06/28 02:23:51;;;;;;;2.08;1.35;;;19.90;99.90;;;;;;5054230;28;20272;-70
2022/06/28 02:26:17;;;;;;;1.45;1.23;;;19.90;99.90;;;;;;5053975;28;20350;-70
2022/06/28 02:28:44;;;;;;;1.48;1.27;;;20.00;99.90;;;;;;5053902;28;20201;-71
2022/06/28 02:31:11;;;;;;;1.55;1.00;;;20.00;99.90;;;;;;5036019;28;20686;-71
2022/06/28 02:33:37;;;;;;;1.70;1.30;;;20.10;99.90;;;;;;5054054;28;20271;-71
2022/06/28 02:41:31;;;;;;;7.38;1.83;;;20.00;99.90;;;;;;5033718;28;20220;-71
2022/06/28 02:43:57;;;;;;;1.10;1.05;;;19.90;99.90;;;;;;5033919;28;20716;-72
2022/06/28 02:46:23;;;;;;;2.15;1.27;;;19.90;99.90;;;;;;5016119;28;20202;-71
2022/06/28 02:48:48;;;;;;;2.20;1.73;;;19.90;99.90;;;;;;5033670;28;20289;-72
2022/06/28 02:51:14;;;;;;;1.77;1.58;;;19.90;99.90;;;;;;5033624;28;20251;-72
2022/06/28 02:53:40;;;;;;;1.38;1.00;;;19.90;99.90;;;;;;5033480;28;20197;-71
2022/06/28 02:56:05;;;;;;;3.47;1.48;;;19.80;99.90;;;;;;5042070;28;20202;-71
2022/06/28 02:58:31;;;;;;;1.30;1.20;;;19.70;99.90;;;;;;5053192;28;20186;-70
2022/06/28 03:00:57;;;;;;;1.73;1.30;;;19.60;99.90;;;;;;5046535;28;20198;-71
2022/06/28 03:03:23;;;;;;;1.63;1.15;;;19.50;99.90;;;;;;5025288;28;20194;-72
2022/06/28 03:05:49;;;;;;;1.80;1.52;;;19.40;99.90;;;;;;5038916;28;20253;-71
2022/06/28 03:08:15;;;;;;;3.13;1.52;;;19.30;99.90;;;;;;5053517;28;20704;-71
2022/06/28 03:10:40;;;;;;;1.48;1.02;;;19.20;99.90;;;;;;5035174;28;20206;-71
2022/06/28 03:13:06;;;;;;;2.13;1.55;;;19.20;99.90;;;;;;5035315;28;20193;-72
2022/06/28 03:15:32;;;;;;;1.40;1.30;;;19.20;99.90;;;;;;5053017;28;20186;-71
2022/06/28 03:17:58;;;;;;;3.13;2.03;;;19.20;99.90;;;;;;5053032;28;20256;-72
2022/06/28 03:20:24;;;;;;;1.65;1.52;;;19.10;99.90;;;;;;5034995;28;20430;-72
2022/06/28 03:22:49;;;;;;;1.05;0.93;;;19.10;99.90;;;;;;5052945;28;20692;-72
2022/06/28 03:25:15;;;;;;;1.13;1.02;;;19.10;99.90;;;;;;5035141;28;20233;-71
2022/06/28 03:27:41;;;;;;;2.65;1.80;;;19.00;99.90;;;;;;5052813;28;20267;-71
2022/06/28 03:30:07;;;;;;;1.40;1.30;;;19.00;99.90;;;;;;5051720;28;20275;-71
2022/06/28 03:32:33;;;;;;;2.42;1.60;;;18.90;99.90;;;;;;5043040;28;20202;-71
2022/06/28 03:34:59;;;;;;;1.55;1.45;;;18.90;99.90;;;;;;5032868;28;20239;-71
2022/06/28 03:37:25;;;;;;;2.15;1.83;;;18.90;99.90;;;;;;5014851;28;20198;-71
2022/06/28 03:39:51;;;;;;;2.60;1.45;;;18.90;99.90;;;;;;5032829;28;20658;-71
2022/06/28 03:42:16;;;;;;;1.83;1.63;;;18.90;99.90;;;;;;5032607;28;20190;-71
2022/06/28 03:44:42;;;;;;;0.98;0.88;;;18.90;99.90;;;;;;5032673;28;20300;-72
2022/06/28 03:47:08;;;;;;;2.08;1.75;;;18.90;99.90;;;;;;5032660;28;20195;-72
2022/06/28 03:49:34;;;;;;;1.65;1.50;;;18.90;99.90;;;;;;5032612;28;20200;-71
2022/06/28 03:51:59;;;;;;;4.35;2.40;;;18.90;99.90;;;;;;5014673;28;20229;-72
2022/06/28 03:54:26;;;;;;;1.42;1.30;;;19.00;99.90;;;;;;5032355;28;20194;-72
2022/06/28 03:56:52;;;;;;;2.85;1.90;;;19.00;99.90;;;;;;5014742;28;20661;-69
2022/06/28 03:59:17;;;;;;;2.78;1.70;;;19.00;99.90;;;;;;5014419;28;20200;-72
2022/06/28 04:01:43;;;;;;;2.63;2.17;;;19.10;99.90;;;;;;5032248;28;20202;-72
2022/06/28 04:04:09;;;;;;;2.38;1.55;;;19.10;99.90;;;;;;5032465;28;20657;-71
2022/06/28 04:06:34;;;;;;;2.67;2.10;;;19.10;99.90;;;;;;5022801;28;20226;-71
2022/06/28 04:09:00;;;;;;;1.25;1.10;;;19.10;99.90;;;;;;5032098;28;20703;-71
2022/06/28 04:11:26;;;;;;;1.80;1.58;;;19.00;99.90;;;;;;5031973;28;20258;-71
2022/06/28 04:13:53;;;;;;;1.77;1.50;;;19.00;99.90;;;;;;5032283;28;20218;-71
2022/06/28 04:16:21;;;;;;;2.10;1.90;;;19.00;99.90;;;;;;5031779;28;20209;-71
2022/06/28 04:18:47;;;;;;;2.72;1.70;;;19.00;99.90;;;;;;5032028;28;20195;-71
2022/06/28 04:21:15;;;;;;;3.30;2.33;;;19.10;99.90;;;;;;5014216;28;20297;-71
2022/06/28 04:23:42;;;;;;;1.75;1.58;;;19.10;99.90;;;;;;5031891;28;20198;-71
2022/06/28 04:26:08;;;;;;;1.80;1.30;;;19.10;99.90;;;;;;5031984;28;20538;-71
2022/06/28 04:28:34;;;;;;;1.67;1.58;;;19.10;99.90;;;;;;5019820;28;20284;-72
2022/06/28 04:31:00;;;;;;;2.80;2.28;;;19.10;99.90;;;;;;5051617;28;20209;-71
2022/06/28 04:33:27;;;;;;;2.60;1.77;;;19.20;99.90;;;;;;5051478;28;20682;-71
2022/06/28 04:35:53;;;;;;;1.48;1.38;;;19.20;99.90;;;;;;5051743;28;20196;-71
2022/06/28 04:38:19;;;;;;;3.30;2.20;;;19.20;99.90;;;;;;5051436;28;20185;-70
2022/06/28 04:40:45;;;;;;;2.63;1.73;;;19.20;99.90;;;;;;5051221;28;20284;-71
2022/06/28 04:43:11;;;;;;;1.95;1.75;;;19.20;99.90;;;;;;5051574;28;20276;-71
2022/06/28 04:45:37;;;;;;;1.60;1.13;;;19.30;99.90;;;;;;5051360;28;20197;-71
2022/06/28 04:48:03;;;;;;;2.13;1.60;;;19.30;99.90;;;;;;5033485;28;20197;-70
2022/06/28 04:50:29;;;;;;;2.60;1.45;;;19.40;99.90;;;;;;5051042;28;20212;-71
2022/06/28 04:52:54;;;;;;;2.42;1.60;;;19.40;99.90;;;;;;5051469;28;20204;-70
2022/06/28 04:55:20;;;;;;;2.60;1.67;;;19.50;99.90;;;;;;5051216;28;20197;-71
2022/06/28 04:57:46;;;;;;;3.03;1.88;;;19.60;99.90;;;;;;5051261;28;20563;-70
2022/06/28 05:00:12;;;;;;;2.30;1.48;;;19.70;99.90;;;;;;5051321;28;20193;-70
2022/06/28 05:02:39;;;;;;;3.53;2.15;;;19.90;99.90;;;;;;5033312;28;20747;-70
2022/06/28 05:05:05;;;;;;;2.67;1.90;;;20.00;99.90;;;;;;5051185;28;20235;-70
2022/06/28 05:07:32;;;;;;;2.33;1.70;;;20.00;99.90;;;;;;5029713;28;20202;-70
2022/06/28 05:09:59;;;;;;;2.70;1.70;;;20.00;99.90;;;;;;5013588;28;20210;-70
2022/06/28 05:12:24;;;;;;;1.20;1.05;;;20.00;99.90;;;;;;5031376;28;20288;-71
2022/06/28 05:14:50;;;;;;;2.03;1.77;;;20.00;99.90;;;;;;5030007;28;20194;-70
2022/06/28 05:17:16;;;;;;;2.10;1.67;;;20.10;99.90;;;;;;5031109;28;20287;-71
2022/06/28 05:19:42;;;;;;;1.77;1.30;;;20.10;99.90;;;;;;5031064;28;20221;-71
2022/06/28 05:22:08;;;;;;;1.92;1.80;;;20.10;99.90;;;;;;5031178;28;20186;-71
2022/06/28 05:24:35;;;;;;;1.48;1.38;;;20.20;99.90;;;;;;5030710;28;20255;-71
2022/06/28 05:27:01;;;;;;;2.15;1.75;;;20.20;99.90;;;;;;5013631;28;20190;-71
2022/06/28 05:29:27;;;;;;;6.32;2.35;;;20.30;99.90;;;;;;5030909;28;20213;-71
2022/06/28 05:31:52;;;;;;;4.07;1.95;;;20.30;99.90;;;;;;5031173;28;20669;-71
2022/06/28 05:34:18;;;;;;;3.00;1.65;;;20.30;99.90;;;;;;5031005;28;20205;-71
2022/06/28 05:36:44;;;;;;;2.30;1.67;;;20.40;99.90;;;;;;5013326;28;20198;-71
2022/06/28 05:39:10;;;;;;;2.60;1.67;;;20.40;99.90;;;;;;5031030;28;20222;-71
2022/06/28 05:41:36;;;;;;;2.88;1.83;;;20.30;99.90;;;;;;5013124;28;20285;-70
2022/06/28 05:44:02;;;;;;;2.40;1.70;;;20.30;99.90;;;;;;5032748;28;20277;-71
2022/06/28 05:46:28;;;;;;;1.58;1.23;;;20.20;99.90;;;;;;5050670;28;20200;-74
2022/06/28 05:48:54;;;;;;;1.42;1.00;;;20.20;99.90;;;;;;5050880;28;20293;-70
2022/06/28 05:51:20;;;;;;;1.13;1.00;;;20.10;99.90;;;;;;5050618;28;20300;-70
2022/06/28 05:53:45;;;;;;;1.90;1.42;;;20.10;99.90;;;;;;5053078;28;20277;-70
2022/06/28 05:56:11;;;;;;;1.70;1.42;;;20.10;99.90;;;;;;5054775;28;20729;-70
2022/06/28 05:58:37;;;;;;;0.75;0.73;;;20.20;99.90;;;;;;5054395;28;20495;-70
2022/06/28 06:01:03;;;;;;;1.42;1.23;;;20.20;99.90;;;;;;5036480;28;20208;-71
2022/06/28 06:03:30;;;;;;;0.93;0.90;;;20.30;99.90;;;;;;5054341;28;20221;-71
2022/06/28 06:05:56;;;;;;;1.77;1.00;;;20.40;99.90;;;;;;5054384;28;20623;-73
2022/06/28 06:08:21;;;;;;;1.48;1.38;;;20.50;99.90;;;;;;5054223;28;20193;-71
2022/06/28 06:10:47;;;;;;;1.27;1.17;;;20.80;99.90;;;;;;5054291;28;20213;-72
2022/06/28 06:13:14;;;;;;;1.33;1.23;;;21.40;99.90;;;;;;5054174;28;20201;-72
2022/06/28 06:15:39;;;;;;;4.10;1.98;;;21.70;99.90;;;;;;5036319;28;20197;-73
2022/06/28 06:18:05;;;;;;;1.80;1.40;;;22.00;99.90;;;;;;5065782;28;20573;-72
2022/06/28 06:20:31;;;;;;;2.47;1.73;;;22.30;99.90;;;;;;5074645;28;20197;-72
2022/06/28 06:22:56;;;;;;;2.60;1.35;;;22.40;99.90;;;;;;5074177;28;20557;-73
2022/06/28 06:25:22;;;;;;;1.45;1.30;;;22.70;99.90;;;;;;5072602;28;20232;-73
2022/06/28 06:27:48;;;;;;;2.38;1.67;;;23.00;99.90;;;;;;5074155;28;20201;-71
2022/06/28 06:30:14;;;;;;;33.38;2.20;;;23.10;99.90;;;;;;5072643;28;20260;-73
2022/06/28 06:32:40;;;;;;;2.78;1.20;;;23.40;99.90;;;;;;5074108;28;20185;-72
2022/06/28 06:35:07;;;;;;;3.13;1.65;;;23.50;99.90;;;;;;5073883;28;20192;-73
2022/06/28 06:37:33;;;;;;;1.73;1.20;;;23.70;99.90;;;;;;5073788;28;20631;-72
2022/06/28 06:39:58;;;;;;;2.28;1.13;;;23.60;99.90;;;;;;5073824;28;20246;-72
2022/06/28 06:42:24;;;;;;;2.13;1.27;;;23.30;99.90;;;;;;5054127;28;20209;-71
2022/06/28 06:44:50;;;;;;;1.08;0.80;;;23.40;99.90;;;;;;5052509;28;20190;-73
2022/06/28 06:47:16;;;;;;;2.95;1.38;;;23.50;99.90;;;;;;5053734;28;20201;-74
2022/06/28 06:49:41;;;;;;;2.13;1.42;;;23.30;99.90;;;;;;5053586;28;20705;-73
2022/06/28 06:52:07;;;;;;;0.63;0.63;;;23.40;99.90;;;;;;5052407;28;20228;-73
2022/06/28 06:54:33;;;;;;;2.20;1.55;;;23.40;99.90;;;;;;5053412;28;20243;-73
2022/06/28 06:56:58;;;;;;;0.85;0.65;;;23.40;99.90;;;;;;5053607;28;20686;-73
2022/06/28 06:59:24;;;;;;;1.52;1.25;;;23.20;99.90;;;;;;5052826;28;20277;-73
2022/06/28 07:01:50;;;;;;;9.73;1.90;;;23.40;99.90;;;;;;5053371;28;20197;-73
2022/06/28 07:04:16;;;;;;;0.82;0.80;;;23.50;99.90;;;;;;5051871;28;20197;-73
2022/06/28 07:06:42;;;;;;;2.90;1.70;;;23.70;99.90;;;;;;5061455;28;20201;-72
2022/06/28 07:09:08;;;;;;;2.95;1.30;;;23.90;99.90;;;;;;5053228;28;20221;-73
2022/06/28 07:11:34;;;;;;;2.70;1.63;;;24.00;99.90;;;;;;5053007;28;20272;-74
2022/06/28 07:14:00;;;;;;;2.15;1.65;;;24.00;99.90;;;;;;5053273;28;20204;-73
2022/06/28 07:16:26;;;;;;;2.30;1.48;;;23.80;99.90;;;;;;5050174;28;20229;-73
2022/06/28 07:18:52;;;;;;;1.83;1.60;;;23.80;99.90;;;;;;5033170;28;20255;-73
2022/06/28 07:21:18;;;;;;;22.77;1.70;;;23.70;99.90;;;;;;5032946;28;20653;-72
2022/06/28 07:23:44;;;;;;;1.50;1.40;;;23.60;99.90;;;;;;5015379;28;20519;-72
2022/06/28 07:26:10;;;;;;;1.88;1.35;;;23.40;99.90;;;;;;5033073;28;20205;-72
2022/06/28 07:28:36;;;;;;;1.60;1.50;;;23.40;99.90;;;;;;5015096;28;20198;-73
2022/06/28 07:31:02;;;;;;;1.65;1.20;;;23.30;99.90;;;;;;5015178;28;20214;-72
2022/06/28 07:33:28;;;;;;;1.08;0.90;;;23.20;99.90;;;;;;5032668;28;20293;-73
2022/06/28 07:35:54;;;;;;;2.70;1.83;;;23.50;99.90;;;;;;5032933;28;20563;-73
2022/06/28 07:38:20;;;;;;;1.92;1.30;;;23.60;99.90;;;;;;5031401;28;20189;-73
2022/06/28 07:40:46;;;;;;;2.97;1.83;;;23.40;99.90;;;;;;5052639;28;20189;-72
2022/06/28 07:43:11;;;;;;;2.60;1.58;;;23.30;99.90;;;;;;5052670;28;20676;-73
2022/06/28 07:45:39;;;;;;;1.15;0.98;;;23.10;99.90;;;;;;5034584;28;20292;-73
2022/06/28 07:48:06;;;;;;;1.95;1.42;;;23.00;99.90;;;;;;5052530;28;20200;-72
2022/06/28 07:53:17;;;;;;;1.67;1.05;;;22.60;99.90;;;;;;5052706;28;20560;-73
2022/06/28 07:55:43;;;;;;;3.85;1.70;;;22.60;99.90;;;;;;5052423;28;20213;-73
2022/06/28 07:58:09;;;;;;;1.95;1.40;;;22.30;99.90;;;;;;5034518;28;20652;-74
2022/06/28 08:00:35;;;;;;;1.15;1.05;;;22.40;99.90;;;;;;5051848;28;20224;-74
2022/06/28 08:03:01;;;;;;;2.95;1.55;;;22.40;99.90;;;;;;5052208;28;20279;-73
2022/06/28 08:05:27;;;;;;;1.20;1.10;;;22.50;99.90;;;;;;5049203;28;20201;-72
2022/06/28 08:07:52;;;;;;;3.00;1.58;;;22.40;99.90;;;;;;5014476;28;20198;-73
2022/06/28 08:10:18;;;;;;;1.95;1.75;;;22.20;99.90;;;;;;5014248;28;20206;-73
2022/06/28 08:12:44;;;;;;;1.20;1.10;;;22.00;99.90;;;;;;5031850;28;20232;-73
2022/06/28 08:15:11;;;;;;;2.17;1.55;;;22.00;99.90;;;;;;5031801;28;20198;-72
2022/06/28 08:17:37;;;;;;;1.23;1.13;;;22.20;99.90;;;;;;5031733;28;20279;-72
2022/06/28 08:20:03;;;;;;;1.85;1.60;;;22.40;99.90;;;;;;5032146;28;20653;-73
2022/06/28 08:22:29;;;;;;;1.45;0.90;;;22.40;99.90;;;;;;5031782;28;20198;-74
2022/06/28 08:24:54;;;;;;;2.63;1.30;;;22.50;99.90;;;;;;5032029;28;20240;-73
2022/06/28 08:27:20;;;;;;;1.83;1.70;;;22.30;99.90;;;;;;5031627;28;20213;-73
2022/06/28 08:29:47;;;;;;;1.63;1.50;;;22.10;99.90;;;;;;5014135;28;20212;-74
2022/06/28 08:32:13;;;;;;;1.85;1.63;;;22.10;99.90;;;;;;5031880;28;20645;-73
2022/06/28 08:34:39;;;;;;;0.95;0.93;;;22.00;99.90;;;;;;5031671;28;20202;-74
2022/06/28 08:37:06;;;;;;;1.38;1.27;;;22.00;99.90;;;;;;5031839;28;20186;-74
2022/06/28 08:39:32;;;;;;;2.33;2.13;;;21.90;99.90;;;;;;5031729;28;20202;-73
2022/06/28 08:42:05;;;;;;;1.88;1.23;;;21.90;99.90;;;;;;5031621;28;20201;-73
2022/06/28 08:44:34;;;;;;;1.83;1.55;;;21.70;99.90;;;;;;4997409;28;20574;-73
2022/06/28 08:47:00;;;;;;;1.25;1.10;;;21.50;99.90;;;;;;5031608;28;20194;-74
2022/06/28 08:50:01;;;;;;;1.38;0.93;;;21.40;99.90;;;;;;5013832;28;20736;-73
2022/06/28 08:52:28;;;;;;;1.35;1.10;;;21.10;99.90;;;;;;5030426;28;20214;-73
2022/06/28 08:54:53;;;;;;;0.88;0.82;;;21.20;99.90;;;;;;5031569;28;20206;-74
2022/06/28 08:57:20;;;;;;;0.45;0.45;;;21.20;99.90;;;;;;5031280;28;20186;-73
2022/06/28 08:59:48;;;;;;;1.25;1.00;;;21.00;99.90;;;;;;5013678;28;20604;-72
2022/06/28 09:02:15;;;;;;;1.92;0.85;;;20.90;99.90;;;;;;5031152;28;20193;-72
2022/06/28 09:04:45;;;;;;;0.73;0.73;;;20.60;99.90;;;;;;5013751;28;20287;-71
2022/06/28 09:07:11;;;;;;;0.50;0.50;;;20.60;99.90;;;;;;5048105;28;20244;-68
2022/06/28 09:09:37;;;;;;;2.55;1.30;;;20.60;99.90;;;;;;5049709;28;20209;-70
2022/06/28 09:12:03;;;;;;;0.82;0.50;;;20.60;99.90;;;;;;5051219;28;20209;-70
2022/06/28 09:14:31;;;;;;;14.32;0.77;;;20.50;99.90;;;;;;5051006;28;20236;-70
2022/06/28 09:16:58;;;;;;;0.40;0.40;;;20.80;99.90;;;;;;5050919;28;20225;-69
2022/06/28 09:19:40;;;;;;;0.40;0.40;;;20.90;99.90;;;;;;5050828;28;20228;-69
2022/06/28 09:22:06;;;;;;;0.65;0.43;;;20.90;99.90;;;;;;5033110;28;20205;-69
2022/06/28 09:24:33;;;;;;;1.85;0.82;;;21.10;99.90;;;;;;5033069;28;20201;-69
2022/06/28 09:27:05;;;;;;;0.35;0.35;;;21.40;99.90;;;;;;5051152;28;20194;-70
2022/06/28 09:29:47;;;;;;;0.30;0.30;;;21.60;99.90;;;;;;5039163;28;20284;-70
2022/06/28 09:32:13;;;;;;;0.50;0.47;;;21.60;99.90;;;;;;5035270;28;20195;-68
2022/06/28 09:35:00;;;;;;;0.30;0.30;;;21.60;99.90;;;;;;5034883;28;20205;-70
2022/06/28 09:37:33;;;;;;;0.20;0.20;;;21.60;99.90;;;;;;5035024;28;20190;-69
2022/06/28 09:40:18;;;;;;;19.40;0.90;;;21.70;99.90;;;;;;5017237;28;20198;-70
2022/06/28 09:43:03;;;;;;;0.40;0.40;;;21.80;99.90;;;;;;5034995;28;20259;-69
2022/06/28 09:45:29;;;;;;;0.20;0.20;;;21.90;99.90;;;;;;5034550;28;20723;-71
2022/06/28 09:47:55;;;;;;;0.40;0.32;;;21.90;99.90;;;;;;5034915;28;20206;-70
2022/06/28 09:50:23;;;;;;;0.68;0.55;;;21.70;99.90;;;;;;5017034;28;20669;-69
2022/06/28 09:52:50;;;;;;;0.20;0.20;;;21.40;99.90;;;;;;5017129;28;20207;-70
2022/06/28 09:55:17;;;;;;;0.40;0.40;;;21.40;99.90;;;;;;5034817;28;20684;-70
2022/06/28 09:57:45;;;;;;;0.20;0.20;;;21.50;99.90;;;;;;5034569;28;20225;-70
2022/06/28 10:00:12;;;;;;;1.02;0.30;;;21.70;99.90;;;;;;5034618;28;20273;-68
2022/06/28 10:02:41;;;;;;;0.30;0.30;;;21.90;99.90;;;;;;5034225;28;20248;-68
2022/06/28 10:05:09;;;;;;;1.52;0.57;;;21.80;99.90;;;;;;5034597;28;20246;-69
2022/06/28 10:07:35;;;;;;;0.20;0.20;;;21.80;99.90;;;;;;5052773;28;20224;-69
2022/06/28 10:10:05;;;;;;;0.28;0.28;;;21.70;99.90;;;;;;5054262;28;20209;-69
2022/06/28 10:15:23;;;;;;;4.18;0.38;;;20.60;99.90;;;;;;5054293;28;20608;-70
2022/06/28 10:18:03;;;;;;;0.38;0.32;;;20.40;99.90;;;;;;5054229;28;20224;-71
2022/06/28 10:20:34;;;;;;;0.20;0.20;;;20.50;99.90;;;;;;5054417;28;20193;-71
2022/06/28 10:23:19;;;;;;;0.20;0.20;;;20.60;99.90;;;;;;5054236;28;20775;-70
2022/06/28 10:26:00;;;;;;;0.35;0.28;;;20.90;99.90;;;;;;5036181;28;20668;-68
2022/06/28 10:28:52;;;;;;;0.20;0.20;;;21.20;99.90;;;;;;5053899;28;20221;-68
2022/06/28 10:31:23;;;;;;;0.30;0.30;;;21.30;99.90;;;;;;5053738;28;20577;-67
2022/06/28 10:33:54;;;;;;;0.30;0.30;;;21.20;99.90;;;;;;5053956;28;20200;-68
2022/06/28 10:36:22;;;;;;;0.63;0.57;;;21.40;99.90;;;;;;5053734;28;20598;-69
2022/06/28 10:39:08;;;;;;;0.20;0.20;;;21.40;99.90;;;;;;5053328;28;20557;-70
2022/06/28 10:41:42;;;;;;;0.20;0.20;;;21.40;99.90;;;;;;5053598;28;20223;-70
2022/06/28 10:44:15;;;;;;;0.10;0.10;;;21.40;99.90;;;;;;5053797;28;20204;-70
2022/06/28 10:46:42;;;;;;;0.20;0.20;;;21.50;99.90;;;;;;5053995;28;20299;-70
2022/06/28 10:49:10;;;;;;;0.25;0.20;;;21.50;99.90;;;;;;5053690;28;20198;-70
2022/06/28 10:51:41;;;;;;;0.20;0.20;;;21.50;99.90;;;;;;5053429;28;20236;-69
2022/06/28 10:54:09;;;;;;;0.28;0.28;;;21.50;99.90;;;;;;5053715;28;20190;-70
2022/06/28 10:56:41;;;;;;;0.47;0.38;;;21.40;99.90;;;;;;5053337;28;20197;-70
2022/06/28 10:59:09;;;;;;;0.30;0.30;;;21.30;99.90;;;;;;5053389;28;20185;-70
2022/06/28 11:01:44;;;;;;;0.20;0.20;;;21.30;99.90;;;;;;5051633;28;20197;-71
2022/06/28 11:04:11;;;;;;;0.25;0.25;;;21.30;99.90;;;;;;5033603;28;20198;-69
2022/06/28 11:06:42;;;;;;;0.10;0.10;;;21.20;99.90;;;;;;5045398;28;20725;-69
2022/06/28 11:09:25;;;;;;;0.10;0.10;;;20.50;99.90;;;;;;5053242;28;20201;-69
2022/06/28 11:12:12;;;;;;;0.43;0.32;;;19.80;99.90;;;;;;5053234;28;20216;-70
2022/06/28 11:14:52;;;;;;;0.40;0.40;;;19.20;99.90;;;;;;5053103;28;20255;-70
2022/06/28 11:17:44;;;;;;;0.30;0.30;;;18.80;99.90;;;;;;5052945;28;20451;-69
2022/06/28 11:20:12;;;;;;;0.20;0.20;;;18.40;99.90;;;;;;5053194;28;20193;-69
2022/06/28 11:22:44;;;;;;;0.40;0.40;;;18.20;99.90;;;;;;5023919;28;20194;-69
2022/06/28 11:25:17;;;;;;;0.30;0.30;;;18.10;99.90;;;;;;5033261;28;20579;-70
2022/06/28 11:27:47;;;;;;;0.30;0.30;;;18.00;99.90;;;;;;5033723;28;20189;-69
2022/06/28 11:30:14;;;;;;;0.45;0.45;;;17.90;99.90;;;;;;5015239;28;20225;-70
2022/06/28 11:32:44;;;;;;;0.30;0.30;;;17.70;99.90;;;;;;5032868;28;20194;-69
2022/06/28 11:35:15;;;;;;;0.40;0.40;;;17.70;99.90;;;;;;5032966;28;20221;-69
2022/06/28 11:37:50;;;;;;;0.20;0.20;;;17.70;99.90;;;;;;5032739;28;20224;-69
2022/06/28 11:40:17;;;;;;;0.30;0.30;;;17.70;99.90;;;;;;5032718;28;20193;-69
2022/06/28 11:42:44;;;;;;;0.20;0.20;;;17.70;99.90;;;;;;5032799;28;20230;-69
2022/06/28 11:45:11;;;;;;;0.20;0.20;;;17.80;99.90;;;;;;5032853;28;20730;-69
2022/06/28 11:47:44;;;;;;;0.35;0.35;;;17.90;99.90;;;;;;5014726;28;20665;-69
2022/06/28 11:50:19;;;;;;;0.30;0.30;;;17.90;99.90;;;;;;5032344;28;20279;-69
2022/06/28 11:52:49;;;;;;;2.03;0.38;;;17.90;99.90;;;;;;5032559;28;20206;-69
2022/06/28 11:55:16;;;;;;;1.20;1.10;;;18.00;99.90;;;;;;5032626;28;20660;-69
2022/06/28 11:57:44;;;;;;;0.30;0.30;;;18.10;99.90;;;;;;5014611;28;20869;-70
2022/06/28 12:00:13;;;;;;;0.88;0.50;;;18.20;99.90;;;;;;5034459;28;20205;-69
2022/06/28 12:02:55;;;;;;;0.30;0.30;;;18.20;99.90;;;;;;5052607;28;20710;-69
2022/06/28 12:05:32;;;;;;;0.30;0.30;;;18.20;99.90;;;;;;5050049;28;20235;-69
2022/06/28 12:07:59;;;;;;;0.50;0.50;;;18.10;99.90;;;;;;5032408;28;20194;-69
2022/06/28 12:10:28;;;;;;;0.30;0.30;;;18.00;99.90;;;;;;5032228;28;20559;-69
2022/06/28 12:12:55;;;;;;;0.30;0.30;;;17.80;99.90;;;;;;5032371;28;20194;-69
2022/06/28 12:15:31;;;;;;;0.22;0.22;;;17.70;99.90;;;;;;5032029;28;20226;-69
2022/06/28 12:18:05;;;;;;;0.30;0.30;;;17.80;99.90;;;;;;5040668;28;20229;-69
2022/06/28 12:20:32;;;;;;;0.57;0.47;;;17.90;99.90;;;;;;5051854;28;20193;-69
2022/06/28 12:23:05;;;;;;;0.32;0.32;;;17.90;99.90;;;;;;5051997;28;20617;-70
2022/06/28 12:25:32;;;;;;;0.30;0.30;;;17.80;99.90;;;;;;5051853;28;20671;-69
2022/06/28 12:27:59;;;;;;;0.52;0.47;;;17.80;99.90;;;;;;5051903;28;20212;-69
2022/06/28 12:30:25;;;;;;;0.40;0.40;;;17.70;99.90;;;;;;5051594;28;20610;-68
2022/06/28 12:32:56;;;;;;;0.30;0.30;;;17.50;99.90;;;;;;5051852;28;20675;-69
2022/06/28 12:35:23;;;;;;;0.85;0.57;;;17.50;99.90;;;;;;5051694;28;20186;-68
2022/06/28 12:37:49;;;;;;;0.55;0.40;;;17.50;99.90;;;;;;5051602;28;20250;-68
2022/06/28 12:40:15;;;;;;;0.30;0.30;;;17.70;99.90;;;;;;5051718;28;20197;-69
2022/06/28 12:42:41;;;;;;;0.20;0.20;;;17.90;99.90;;;;;;5051571;28;20194;-69
2022/06/28 12:45:07;;;;;;;0.35;0.35;;;18.00;99.90;;;;;;5051663;28;20220;-69
2022/06/28 12:47:35;;;;;;;0.30;0.30;;;18.00;99.90;;;;;;5050013;28;20565;-69
2022/06/28 12:50:05;;;;;;;0.40;0.40;;;18.00;99.90;;;;;;5051493;28;20200;-69
2022/06/28 12:52:32;;;;;;;0.55;0.55;;;18.00;99.90;;;;;;5051307;28;20688;-69
2022/06/28 12:54:58;;;;;;;0.40;0.40;;;18.10;99.90;;;;;;5053124;28;20204;-69
2022/06/28 12:57:27;;;;;;;0.32;0.32;;;18.00;99.90;;;;;;5051219;28;20190;-69
2022/06/28 12:59:53;;;;;;;0.22;0.22;;;18.00;99.90;;;;;;5051342;28;20243;-69